Time;durP1;ratioP1;P1;durP2;ratioP2;P2;SDS_P1;SDS_P2;PMS_P1;PMS_P2;Temp;Humidity;BMP_temperature;BMP_pressure;BME280_temperature;BME280_humidity;BME280_pressure;Samples;Min_cycle;Max_cycle;Signal;HPM_P1;HPM_P2
2023/05/04 00:00:58;;;;;;;4.3;3.6;;;;;;;8.48;91.61035;942.0095;;;;
2023/05/04 00:03:24;;;;;;;4;3.6;;;;;;;8.51;92.28809;941.8968;;;;
2023/05/04 00:05:49;;;;;;;4.4;4;;;;;;;8.48;91.97559;941.87;;;;
2023/05/04 00:08:14;;;;;;;3.5;3.2;;;;;;;8.38;92.38574;941.872;;;;
2023/05/04 00:10:39;;;;;;;4.3;3.6;;;;;;;8.33;92.93164;941.8809;;;;
2023/05/04 00:13:05;;;;;;;3.6;3.3;;;;;;;8.42;92.68945;941.9105;;;;
2023/05/04 00:15:31;;;;;;;4.1;3.6;;;;;;;8.46;92.28809;941.8336;;;;
2023/05/04 00:17:57;;;;;;;3.5;3.2;;;;;;;8.42;92.38281;941.8733;;;;
2023/05/04 00:20:22;;;;;;;3.6;3.3;;;;;;;8.52;91.75586;941.7653;;;;
2023/05/04 00:22:49;;;;;;;4.9;4.3;;;;;;;8.54;91.72559;941.8094;;;;
2023/05/04 00:25:14;;;;;;;6;4.1;;;;;;;8.47;91.9375;941.6515;;;;
2023/05/04 00:27:40;;;;;;;3.8;3.4;;;;;;;8.3;92.32129;941.7825;;;;
2023/05/04 00:30:05;;;;;;;3.9;3.5;;;;;;;8.23;92.76367;941.7668;;;;
2023/05/04 00:32:32;;;;;;;4;3.6;;;;;;;8.24;92.99121;941.7692;;;;
2023/05/04 00:34:57;;;;;;;4.5;3.6;;;;;;;8.19;93.10449;941.7424;;;;
2023/05/04 00:37:24;;;;;;;6.4;4;;;;;;;8.16;93.25977;941.6965;;;;
2023/05/04 00:39:49;;;;;;;4.3;3.8;;;;;;;8.2;93.11816;941.6584;;;;
2023/05/04 00:42:16;;;;;;;4.8;4.3;;;;;;;8.26;92.38184;941.6609;;;;
2023/05/04 00:44:41;;;;;;;4.1;3.7;;;;;;;8.2;92.25684;941.5967;;;;
2023/05/04 00:47:09;;;;;;;4.7;3.7;;;;;;;8.08;92.93555;941.6622;;;;
2023/05/04 00:49:34;;;;;;;4.1;3.4;;;;;;;8.06;93.11133;941.6624;;;;
2023/05/04 00:52:00;;;;;;;4.1;3.7;;;;;;;8.04;93.58203;941.5659;;;;
2023/05/04 00:54:24;;;;;;;4.2;3.8;;;;;;;8.02;93.4209;941.629;;;;
2023/05/04 00:56:50;;;;;;;3.6;3.3;;;;;;;7.96;93.74805;941.5876;;;;
2023/05/04 00:59:15;;;;;;;4;3.6;;;;;;;8.03;93.33008;941.6457;;;;
2023/05/04 01:01:41;;;;;;;4.7;3.7;;;;;;;8.04;92.80078;941.5811;;;;
2023/05/04 01:04:06;;;;;;;4.5;3.8;;;;;;;8.07;92.5459;941.5895;;;;
2023/05/04 01:06:32;;;;;;;4.9;3.7;;;;;;;8;92.48438;941.5591;;;;
2023/05/04 01:08:59;;;;;;;3.5;3.2;;;;;;;7.97;92.18164;941.5757;;;;
2023/05/04 01:11:23;;;;;;;3.6;3.1;;;;;;;7.93;92.10742;941.5803;;;;
2023/05/04 01:13:49;;;;;;;4.5;3.6;;;;;;;7.91;91.80664;941.5388;;;;
2023/05/04 01:16:14;;;;;;;4;3.6;;;;;;;7.75;92.36426;941.509;;;;
2023/05/04 01:18:39;;;;;;;4;3.6;;;;;;;7.7;92.79688;941.6063;;;;
2023/05/04 01:21:04;;;;;;;4;3.6;;;;;;;7.7;92.72656;941.6616;;;;
2023/05/04 01:23:31;;;;;;;4.5;3.5;;;;;;;7.71;92.65137;941.692;;;;
2023/05/04 01:25:56;;;;;;;5.1;3.5;;;;;;;7.72;92.44727;941.6891;;;;
2023/05/04 01:28:21;;;;;;;3.8;3.4;;;;;;;7.76;92.08008;941.6479;;;;
2023/05/04 01:30:48;;;;;;;3.9;3.4;;;;;;;7.71;92.19727;941.6778;;;;
2023/05/04 01:33:13;;;;;;;4.2;3.6;;;;;;;7.71;91.94629;941.6348;;;;
2023/05/04 01:35:38;;;;;;;4.7;3.7;;;;;;;7.71;91.74219;941.5898;;;;
2023/05/04 01:38:04;;;;;;;3.8;3.4;;;;;;;7.64;91.89648;941.603;;;;
2023/05/04 01:40:30;;;;;;;4;3.6;;;;;;;7.52;92.28125;941.5974;;;;
2023/05/04 01:42:55;;;;;;;4.9;4.3;;;;;;;7.5;92.53613;941.5847;;;;
2023/05/04 01:45:21;;;;;;;5.3;3.9;;;;;;;7.36;93.64063;941.5555;;;;
2023/05/04 01:47:46;;;;;;;4.3;3.9;;;;;;;7.3;94.74902;941.5569;;;;
2023/05/04 01:50:16;;;;;;;4.4;3.7;;;;;;;7.37;94.95703;941.5176;;;;
2023/05/04 01:52:43;;;;;;;5.3;3.5;;;;;;;7.29;94.46582;941.5006;;;;
2023/05/04 01:55:08;;;;;;;4.1;3.7;;;;;;;7.18;94.78906;941.6113;;;;
2023/05/04 01:57:38;;;;;;;3.6;3.3;;;;;;;7.18;94.55078;941.5457;;;;
2023/05/04 02:00:03;;;;;;;4.4;4;;;;;;;7.23;94.93652;941.5686;;;;
2023/05/04 02:02:28;;;;;;;5.8;4;;;;;;;7.3;94.68066;941.5634;;;;
2023/05/04 02:04:55;;;;;;;4.2;3.7;;;;;;;7.28;94.21191;941.5289;;;;
2023/05/04 02:07:20;;;;;;;4.4;4;;;;;;;7.19;94.41895;941.5664;;;;
2023/05/04 02:09:47;;;;;;;4.5;4.1;;;;;;;7.12;94.66309;941.5441;;;;
2023/05/04 02:12:12;;;;;;;4;3.6;;;;;;;7.1;94.77051;941.5212;;;;
2023/05/04 02:14:37;;;;;;;4.1;3.5;;;;;;;7.07;94.97949;941.488;;;;
2023/05/04 02:17:02;;;;;;;4.4;3.7;;;;;;;7;95.06543;941.5101;;;;
2023/05/04 02:19:29;;;;;;;4.1;3.4;;;;;;;6.99;95.6543;941.4634;;;;
2023/05/04 02:21:54;;;;;;;4.2;3.8;;;;;;;7.01;95.14941;941.5742;;;;
2023/05/04 02:24:21;;;;;;;3.6;3.3;;;;;;;6.86;95.51367;941.565;;;;
2023/05/04 02:26:46;;;;;;;5;3.9;;;;;;;6.84;95.80176;941.5945;;;;
2023/05/04 02:29:12;;;;;;;5.6;4;;;;;;;6.81;96.23535;941.4562;;;;
2023/05/04 02:31:37;;;;;;;4.3;3.9;;;;;;;6.74;96.45801;941.5627;;;;
2023/05/04 02:34:03;;;;;;;4.1;3.6;;;;;;;6.73;96.72852;941.5609;;;;
2023/05/04 02:36:28;;;;;;;4.3;3.7;;;;;;;6.7;97.12695;941.6019;;;;
2023/05/04 02:38:55;;;;;;;4.7;3.9;;;;;;;6.71;98.24023;941.5666;;;;
2023/05/04 02:41:20;;;;;;;6.3;4.1;;;;;;;6.85;97.69629;941.5236;;;;
2023/05/04 02:43:46;;;;;;;5.8;4.3;;;;;;;6.94;97.19434;941.5292;;;;
2023/05/04 02:46:11;;;;;;;6.7;4.7;;;;;;;6.9;96.70996;941.437;;;;
2023/05/04 02:48:38;;;;;;;4.9;3.9;;;;;;;6.84;96.33398;941.5478;;;;
2023/05/04 02:51:03;;;;;;;5.6;3.9;;;;;;;6.83;96.2207;941.5151;;;;
2023/05/04 02:53:30;;;;;;;4.2;3.5;;;;;;;6.82;95.94238;941.5344;;;;
2023/05/04 02:55:55;;;;;;;5.3;4.1;;;;;;;6.85;95.35059;941.5226;;;;
2023/05/04 02:58:24;;;;;;;4.4;3.6;;;;;;;6.79;95.39355;941.5625;;;;
2023/05/04 03:00:49;;;;;;;4.3;3.6;;;;;;;6.78;95.06543;941.5751;;;;
2023/05/04 03:03:17;;;;;;;4.9;4;;;;;;;6.74;94.79492;941.5737;;;;
2023/05/04 03:05:42;;;;;;;4.4;3.4;;;;;;;6.66;94.99219;941.5881;;;;
2023/05/04 03:08:10;;;;;;;4;3.3;;;;;;;6.52;95.6748;941.5157;;;;
2023/05/04 03:10:35;;;;;;;3.8;3.4;;;;;;;6.52;96.08203;941.5625;;;;
2023/05/04 03:13:04;;;;;;;4.5;3.4;;;;;;;6.37;96.15137;941.6375;;;;
2023/05/04 03:15:27;;;;;;;3.9;3.5;;;;;;;6.39;96.24512;941.5765;;;;
2023/05/04 03:17:57;;;;;;;4.2;3.7;;;;;;;6.38;96.60352;941.5776;;;;
2023/05/04 03:20:22;;;;;;;4.2;3.6;;;;;;;6.38;97.14648;941.5911;;;;
2023/05/04 03:22:48;;;;;;;3.5;3.1;;;;;;;6.28;97.53027;941.5549;;;;
2023/05/04 03:25:17;;;;;;;4.7;3.4;;;;;;;6.29;97.52148;941.5125;;;;
2023/05/04 03:27:42;;;;;;;4.4;4;;;;;;;6.24;97.92773;941.4777;;;;
2023/05/04 03:30:15;;;;;;;5;3.5;;;;;;;6.3;97.97754;941.5792;;;;
2023/05/04 03:32:39;;;;;;;3.9;3.5;;;;;;;6.34;97.16992;941.6387;;;;
2023/05/04 03:35:09;;;;;;;4;3.6;;;;;;;6.31;96.76758;941.5872;;;;
2023/05/04 03:37:35;;;;;;;4.1;3.5;;;;;;;6.2;97.28613;941.6033;;;;
2023/05/04 03:40:03;;;;;;;4.5;3.5;;;;;;;6.14;97.5791;941.5756;;;;
2023/05/04 03:42:36;;;;;;;3.7;3.4;;;;;;;6.14;97.84766;941.5446;;;;
2023/05/04 03:45:01;;;;;;;3.9;3.5;;;;;;;6.07;97.86719;941.5236;;;;
2023/05/04 03:47:34;;;;;;;5.1;3.8;;;;;;;6.05;97.7168;941.5293;;;;
2023/05/04 03:50:02;;;;;;;5.1;4.1;;;;;;;6.05;97.63574;941.5411;;;;
2023/05/04 03:52:37;;;;;;;4.4;3.8;;;;;;;6.06;97.8877;941.4791;;;;
2023/05/04 03:55:09;;;;;;;4.6;3.5;;;;;;;5.81;98.72266;941.4435;;;;
2023/05/04 03:57:34;;;;;;;4.1;3.7;;;;;;;5.84;98.94336;941.4269;;;;
2023/05/04 04:00:06;;;;;;;5.2;4.4;;;;;;;5.85;100;941.4338;;;;
2023/05/04 04:02:38;;;;;;;5.6;4.5;;;;;;;5.88;100;941.3959;;;;
2023/05/04 04:05:03;;;;;;;6.1;4.7;;;;;;;6.01;99.81934;941.4292;;;;
2023/05/04 04:07:29;;;;;;;5.5;4.4;;;;;;;6.11;99.01758;941.4267;;;;
2023/05/04 04:09:55;;;;;;;5.3;4.5;;;;;;;6.18;98.37793;941.3878;;;;
2023/05/04 04:12:28;;;;;;;6.1;5.3;;;;;;;6.25;97.28711;941.4117;;;;
2023/05/04 04:15:00;;;;;;;4.9;4.4;;;;;;;6.26;96.98145;941.4055;;;;
2023/05/04 04:17:25;;;;;;;4.8;4.1;;;;;;;6.18;96.70508;941.3918;;;;
2023/05/04 04:19:58;;;;;;;5.3;4;;;;;;;6.13;96.3877;941.4455;;;;
2023/05/04 04:22:31;;;;;;;3.9;3.5;;;;;;;6.1;96.13379;941.4827;;;;
2023/05/04 04:25:02;;;;;;;5.6;4.4;;;;;;;6.13;95.78906;941.4897;;;;
2023/05/04 04:27:26;;;;;;;8.7;5.7;;;;;;;6.16;95.6709;941.5214;;;;
2023/05/04 04:29:54;;;;;;;4.5;3.7;;;;;;;6.14;95.39746;941.5108;;;;
2023/05/04 04:32:20;;;;;;;4.1;3.5;;;;;;;6.09;95.52148;941.5453;;;;
2023/05/04 04:34:47;;;;;;;4;3.6;;;;;;;6.09;95.59082;941.5559;;;;
2023/05/04 04:37:12;;;;;;;4.5;3.6;;;;;;;6.04;95.58984;941.5606;;;;
2023/05/04 04:39:41;;;;;;;3.9;3.5;;;;;;;5.94;96.30273;941.5446;;;;
2023/05/04 04:42:06;;;;;;;4.3;3.4;;;;;;;5.95;96.6416;941.5139;;;;
2023/05/04 04:44:33;;;;;;;4.1;3.4;;;;;;;6;97.95313;941.5385;;;;
2023/05/04 04:46:58;;;;;;;4.7;4.1;;;;;;;6.05;97.28516;941.4881;;;;
2023/05/04 04:49:26;;;;;;;4.7;4.2;;;;;;;6.04;97.75781;941.5273;;;;
2023/05/04 04:51:51;;;;;;;8.2;4.6;;;;;;;6.18;98.35547;941.4621;;;;
2023/05/04 04:54:19;;;;;;;4.6;4.1;;;;;;;6.45;97.70508;941.535;;;;
2023/05/04 04:56:45;;;;;;;4.2;3.8;;;;;;;6.53;95.99316;941.5405;;;;
2023/05/04 04:59:12;;;;;;;5.3;4;;;;;;;6.46;95.30957;941.5108;;;;
2023/05/04 05:01:37;;;;;;;4.4;3.5;;;;;;;6.33;95.82422;941.5714;;;;
2023/05/04 05:04:07;;;;;;;3.9;3.5;;;;;;;6.3;96.25879;941.5349;;;;
2023/05/04 05:06:35;;;;;;;3.5;3.2;;;;;;;6.33;96.10449;941.4883;;;;
2023/05/04 05:09:00;;;;;;;4.5;3.4;;;;;;;6.27;96.46387;941.5022;;;;
2023/05/04 05:11:28;;;;;;;3.3;2.9;;;;;;;6.27;96.69238;941.4636;;;;
2023/05/04 05:13:53;;;;;;;3.9;3.4;;;;;;;6.34;96.93262;941.4869;;;;
2023/05/04 05:16:24;;;;;;;4.2;3.6;;;;;;;6.48;96.5918;941.4931;;;;
2023/05/04 05:18:52;;;;;;;4.9;4.4;;;;;;;6.7;96.17676;941.4554;;;;
2023/05/04 05:21:17;;;;;;;6;4.8;;;;;;;6.94;96.23145;941.4113;;;;
2023/05/04 05:23:46;;;;;;;10.6;8.1;;;;;;;8.08;94.49023;941.3752;;;;
2023/05/04 05:26:15;;;;;;;3.9;3.5;;;;;;;10.09;85.31445;941.3122;;;;
2023/05/04 05:28:40;;;;;;;5.1;4;;;;;;;11.25;77.44922;941.3161;;;;
2023/05/04 05:31:09;;;;;;;26;13.4;;;;;;;11.69;73.95313;941.3038;;;;
2023/05/04 05:33:34;;;;;;;5;3.9;;;;;;;12.93;68.35645;941.2872;;;;
2023/05/04 05:36:02;;;;;;;6.7;2.7;;;;;;;13.52;66.17188;941.23;;;;
2023/05/04 05:38:27;;;;;;;2.6;2.2;;;;;;;13.86;63.88867;941.2305;;;;
2023/05/04 05:40:56;;;;;;;2.2;1.7;;;;;;;13.7;64.14258;941.2059;;;;
2023/05/04 05:43:24;;;;;;;2.5;2.2;;;;;;;13.88;64.97461;941.2329;;;;
2023/05/04 05:45:49;;;;;;;2.1;1.9;;;;;;;13.98;63.96484;941.2363;;;;
2023/05/04 05:48:17;;;;;;;2.1;1.9;;;;;;;14.38;62.41016;941.1;;;;
2023/05/04 05:50:42;;;;;;;2;1.8;;;;;;;14.85;61.48633;941.1501;;;;
2023/05/04 05:53:08;;;;;;;2;1.8;;;;;;;15.62;57.74805;941.1462;;;;
2023/05/04 05:55:33;;;;;;;1.9;1.8;;;;;;;15.66;56.9082;941.1484;;;;
2023/05/04 05:58:01;;;;;;;1.9;1.8;;;;;;;15.42;58.14941;941.0856;;;;
2023/05/04 06:00:26;;;;;;;2;1.8;;;;;;;15.72;56.22461;941.1071;;;;
2023/05/04 06:02:58;;;;;;;1.8;1.7;;;;;;;16.78;54.29883;941.0966;;;;
2023/05/04 06:05:26;;;;;;;1.5;1.4;;;;;;;16.16;54.45313;941.0975;;;;
2023/05/04 06:07:51;;;;;;;1.8;1.7;;;;;;;16.96;52.2002;941.0604;;;;
2023/05/04 06:10:21;;;;;;;1.9;1.7;;;;;;;18.54;51.18945;941.0253;;;;
2023/05/04 06:12:51;;;;;;;1.8;1.7;;;;;;;18.82;47.92969;941.03;;;;
2023/05/04 06:15:16;;;;;;;1.7;1.5;;;;;;;17.29;52.10059;941.0444;;;;
2023/05/04 06:17:44;;;;;;;1.6;1.5;;;;;;;16.25;54.22168;941.0474;;;;
2023/05/04 06:20:09;;;;;;;1.6;1.5;;;;;;;18.38;50.11426;940.9615;;;;
2023/05/04 06:22:34;;;;;;;1.6;1.5;;;;;;;18.18;49.9873;940.8427;;;;
2023/05/04 06:25:02;;;;;;;1.6;1.5;;;;;;;18.63;49.45605;940.9414;;;;
2023/05/04 06:27:58;;;;;;;1.8;1.7;;;;;;;18.62;49.2334;940.8925;;;;
2023/05/04 06:30:27;;;;;;;1.7;1.4;;;;;;;20.29;46.53613;940.8977;;;;
2023/05/04 06:32:53;;;;;;;1.5;1.4;;;;;;;20.53;43.5127;940.8603;;;;
2023/05/04 06:35:21;;;;;;;1.5;1.4;;;;;;;18.5;47.46582;940.6905;;;;
2023/05/04 06:37:47;;;;;;;1.4;1.3;;;;;;;18.41;46.89648;940.7126;;;;
2023/05/04 06:40:20;;;;;;;1.5;1.4;;;;;;;17.15;51.12207;940.74;;;;
2023/05/04 06:42:49;;;;;;;1.5;1.3;;;;;;;17.51;52.0459;940.7159;;;;
2023/05/04 06:45:14;;;;;;;1.6;1.5;;;;;;;18.6;47.92969;940.6428;;;;
2023/05/04 06:47:44;;;;;;;1.6;1.4;;;;;;;18.07;49.92773;940.5784;;;;
2023/05/04 06:50:10;;;;;;;1.7;1.5;;;;;;;19.3;49.28711;940.6495;;;;
2023/05/04 06:52:34;;;;;;;1.5;1.4;;;;;;;20.87;45.16016;940.5906;;;;
2023/05/04 06:55:01;;;;;;;1.5;1.4;;;;;;;21.93;42.49121;940.6091;;;;
2023/05/04 06:57:26;;;;;;;1.4;1.3;;;;;;;21.1;41.70996;940.5151;;;;
2023/05/04 07:00:57;;;;;;;1.5;1.4;;;;;;;21.97;39.35449;940.5892;;;;
2023/05/04 07:03:26;;;;;;;1.1;1.1;;;;;;;21.62;40.74023;940.4548;;;;
2023/05/04 07:05:52;;;;;;;1.2;1.2;;;;;;;21.69;38.87207;940.5449;;;;
2023/05/04 07:08:19;;;;;;;2.1;1.1;;;;;;;22.49;38.60156;940.4562;;;;
2023/05/04 07:10:44;;;;;;;2.2;1.3;;;;;;;23.3;37.56738;940.5742;;;;
2023/05/04 07:13:12;;;;;;;1.2;1.1;;;;;;;21.34;39.55469;940.4702;;;;
2023/05/04 07:15:37;;;;;;;1.6;1.5;;;;;;;21.25;41.61914;940.4587;;;;
2023/05/04 07:18:06;;;;;;;1.3;1.2;;;;;;;22.01;39.22852;940.4906;;;;
2023/05/04 07:20:33;;;;;;;1.8;1.3;;;;;;;21.32;40.36035;940.4618;;;;
2023/05/04 07:22:58;;;;;;;1.7;1.3;;;;;;;20.76;41.19922;940.4369;;;;
2023/05/04 07:25:24;;;;;;;1.5;1.3;;;;;;;23.42;37.07227;940.4462;;;;
2023/05/04 07:27:49;;;;;;;1.4;1.2;;;;;;;23.15;36.61426;940.3861;;;;
2023/05/04 07:30:19;;;;;;;1.2;1.1;;;;;;;25.5;34.44531;940.3696;;;;
2023/05/04 07:32:45;;;;;;;1.2;1.1;;;;;;;26.69;34.02734;940.326;;;;
2023/05/04 07:35:09;;;;;;;1;1;;;;;;;26.96;31.5;940.284;;;;
2023/05/04 07:37:36;;;;;;;1.4;1.3;;;;;;;26.94;30.91797;940.2206;;;;
2023/05/04 07:40:04;;;;;;;1.9;1.3;;;;;;;28.61;29.10645;940.2665;;;;
2023/05/04 07:42:26;;;;;;;0.9;0.9;;;;;;;28.19;28.75781;940.2559;;;;
2023/05/04 07:44:53;;;;;;;1;1;;;;;;;28.32;28.84961;940.233;;;;
2023/05/04 07:47:18;;;;;;;1.1;1.1;;;;;;;28.83;28.33496;940.2361;;;;
2023/05/04 07:49:45;;;;;;;0.9;0.9;;;;;;;25.13;30.85254;940.1856;;;;
2023/05/04 07:52:11;;;;;;;1;1;;;;;;;27.38;30.73438;940.1259;;;;
2023/05/04 07:54:37;;;;;;;1.5;1.1;;;;;;;28.65;28.94238;940.178;;;;
2023/05/04 07:57:03;;;;;;;0.9;0.9;;;;;;;27.28;29.1748;940.1464;;;;
2023/05/04 07:59:32;;;;;;;1.1;1;;;;;;;28;28.5918;940.1406;;;;
2023/05/04 08:02:00;;;;;;;1;1;;;;;;;29.85;26.95605;940.1011;;;;
2023/05/04 08:04:25;;;;;;;1;1;;;;;;;26.88;29.91895;940.0897;;;;
2023/05/04 08:06:54;;;;;;;1;1;;;;;;;27.74;28.52734;940.1019;;;;
2023/05/04 08:09:19;;;;;;;1.3;1.2;;;;;;;28.38;27.96191;940.086;;;;
2023/05/04 08:11:48;;;;;;;1.1;1.1;;;;;;;28.47;27.88379;940.0549;;;;
2023/05/04 08:14:13;;;;;;;1.1;1;;;;;;;29.38;25.56934;940.0106;;;;
2023/05/04 08:16:42;;;;;;;1.2;1.1;;;;;;;25.99;31.11328;940.0449;;;;
2023/05/04 08:19:07;;;;;;;1.1;1;;;;;;;29.19;27.89258;939.9656;;;;
2023/05/04 08:21:33;;;;;;;1.6;1.2;;;;;;;30.2;27.03613;940.0005;;;;
2023/05/04 08:23:58;;;;;;;0.9;0.9;;;;;;;30.67;26.1084;940.0156;;;;
2023/05/04 08:26:25;;;;;;;1.2;1.1;;;;;;;29.7;28.72363;940.0361;;;;
2023/05/04 08:28:50;;;;;;;1;1;;;;;;;31.38;27.25;940.0864;;;;
2023/05/04 08:31:17;;;;;;;1.2;1.1;;;;;;;30.48;26.38477;940.0648;;;;
2023/05/04 08:33:41;;;;;;;1.2;1.2;;;;;;;29.18;29.78613;940.0506;;;;
2023/05/04 08:36:09;;;;;;;1.4;1.1;;;;;;;29.24;29.04004;940.0964;;;;
2023/05/04 08:38:34;;;;;;;1.4;1.1;;;;;;;28.8;30.82031;940.0861;;;;
2023/05/04 08:41:01;;;;;;;14.5;1.7;;;;;;;30.67;26.98145;940.0942;;;;
2023/05/04 08:43:26;;;;;;;1.2;1.1;;;;;;;31.31;25.67871;940.1094;;;;
2023/05/04 08:45:53;;;;;;;1.3;1.2;;;;;;;31.56;26.35156;940.0761;;;;
2023/05/04 08:48:18;;;;;;;1.2;1.1;;;;;;;30.27;27.04102;940.0425;;;;
2023/05/04 08:50:46;;;;;;;0.9;0.9;;;;;;;30.8;27.06055;940.032;;;;
2023/05/04 08:53:12;;;;;;;1.6;1.1;;;;;;;29.44;27.73047;940.0368;;;;
2023/05/04 08:55:39;;;;;;;1.2;1.1;;;;;;;26.43;31.00195;939.9945;;;;
2023/05/04 08:58:04;;;;;;;1.3;1.1;;;;;;;28.41;29.15332;940.0204;;;;
2023/05/04 09:00:32;;;;;;;0.9;0.9;;;;;;;29.5;27.49512;940.0097;;;;
2023/05/04 09:02:58;;;;;;;0.9;0.9;;;;;;;28.09;30.73633;940.0258;;;;
2023/05/04 09:05:26;;;;;;;1.2;1.1;;;;;;;29.51;27.25781;939.9384;;;;
2023/05/04 09:07:51;;;;;;;1.2;1.1;;;;;;;29.17;29.14258;939.978;;;;
2023/05/04 09:10:22;;;;;;;1.2;1.1;;;;;;;29.51;29.52246;939.95;;;;
2023/05/04 09:12:49;;;;;;;1;0.9;;;;;;;29.88;27.86426;939.9163;;;;
2023/05/04 09:15:16;;;;;;;1.1;1;;;;;;;29.97;26.19922;939.9817;;;;
2023/05/04 09:17:44;;;;;;;1.9;1.2;;;;;;;28.68;29.09961;939.9601;;;;
2023/05/04 09:20:14;;;;;;;0.9;0.9;;;;;;;28.16;29.7666;939.8986;;;;
2023/05/04 09:22:38;;;;;;;1.4;1.3;;;;;;;27.12;31.49902;939.8784;;;;
2023/05/04 09:25:04;;;;;;;1;0.9;;;;;;;27.95;29.83594;939.8072;;;;
2023/05/04 09:27:30;;;;;;;1;0.9;;;;;;;27.08;33.01367;939.8437;;;;
2023/05/04 09:29:55;;;;;;;1.2;1.1;;;;;;;25.85;34.38867;939.7776;;;;
2023/05/04 09:32:20;;;;;;;0.9;0.9;;;;;;;25.44;34.51172;939.7892;;;;
2023/05/04 09:34:46;;;;;;;1.1;1.1;;;;;;;25.74;34.80664;939.7358;;;;
2023/05/04 09:37:14;;;;;;;1.2;1.1;;;;;;;26.66;34.20313;939.7122;;;;
2023/05/04 09:39:39;;;;;;;1.2;1.1;;;;;;;25.52;35.65137;939.7472;;;;
2023/05/04 09:42:04;;;;;;;1.2;1.1;;;;;;;26.04;34.44043;939.7587;;;;
2023/05/04 09:44:31;;;;;;;1.1;1;;;;;;;25.32;35.74316;939.6742;;;;
2023/05/04 09:46:56;;;;;;;2.6;1.1;;;;;;;23.42;39.24707;939.728;;;;
2023/05/04 09:49:20;;;;;;;1.6;1.3;;;;;;;24.12;38.55566;939.7001;;;;
2023/05/04 09:51:48;;;;;;;1.5;1.3;;;;;;;24.68;36.48145;939.699;;;;
2023/05/04 09:54:13;;;;;;;1.3;1.2;;;;;;;25.14;36.95605;939.6633;;;;
2023/05/04 09:56:40;;;;;;;1.4;1.3;;;;;;;25.38;36.43262;939.688;;;;
2023/05/04 09:59:05;;;;;;;1.6;1.3;;;;;;;25.05;39.13184;939.6586;;;;
2023/05/04 10:01:30;;;;;;;1.3;1.2;;;;;;;25.07;37.59863;939.626;;;;
2023/05/04 10:03:55;;;;;;;1.3;1.2;;;;;;;24.23;41.06348;939.6177;;;;
2023/05/04 10:06:20;;;;;;;1.2;1.1;;;;;;;24.55;38.23926;939.6113;;;;
2023/05/04 10:08:49;;;;;;;1.3;1.2;;;;;;;24.82;38.46191;939.6019;;;;
2023/05/04 10:11:14;;;;;;;1.5;1.4;;;;;;;24.98;39.98633;939.5219;;;;
2023/05/04 10:13:39;;;;;;;1.4;1.3;;;;;;;25.1;39.34766;939.5083;;;;
2023/05/04 10:16:06;;;;;;;1.6;1.4;;;;;;;25.15;37.44043;939.4969;;;;
2023/05/04 10:18:32;;;;;;;1.3;1.2;;;;;;;24.85;40.06934;939.4461;;;;
2023/05/04 10:20:57;;;;;;;1.8;1.4;;;;;;;24.75;39.83594;939.4141;;;;
2023/05/04 10:23:24;;;;;;;1.3;1.1;;;;;;;25.23;37.32813;939.4185;;;;
2023/05/04 10:25:49;;;;;;;1.3;1.2;;;;;;;25.3;38.19727;939.3973;;;;
2023/05/04 10:28:14;;;;;;;1.3;1.2;;;;;;;25.09;40.25586;939.4205;;;;
2023/05/04 10:30:42;;;;;;;1.5;1.4;;;;;;;25.35;38.36621;939.3892;;;;
2023/05/04 10:33:07;;;;;;;1.3;1.2;;;;;;;25.81;37.45996;939.4056;;;;
2023/05/04 10:35:33;;;;;;;1.3;1.2;;;;;;;26.12;37.42676;939.3781;;;;
2023/05/04 10:37:58;;;;;;;1.5;1.4;;;;;;;26.65;36.14453;939.3353;;;;
2023/05/04 10:40:27;;;;;;;1.4;1.3;;;;;;;26.71;35.63965;939.2913;;;;
2023/05/04 10:42:52;;;;;;;3.4;1.5;;;;;;;26.93;35.21973;939.2972;;;;
2023/05/04 10:45:21;;;;;;;1.2;1.2;;;;;;;26.3;37.25293;939.2623;;;;
2023/05/04 10:47:49;;;;;;;1.3;1.2;;;;;;;26.46;35.99902;939.2583;;;;
2023/05/04 10:50:14;;;;;;;1.4;1.3;;;;;;;26.71;35.30859;939.2219;;;;
2023/05/04 10:52:39;;;;;;;1.1;1.1;;;;;;;26.94;34.76953;939.1655;;;;
2023/05/04 10:55:05;;;;;;;1.4;1.3;;;;;;;26.65;35.64746;939.1231;;;;
2023/05/04 10:57:30;;;;;;;1.4;1.3;;;;;;;26.65;35.99121;939.0839;;;;
2023/05/04 10:59:54;;;;;;;1.5;1.1;;;;;;;27.46;32.30664;939.1362;;;;
2023/05/04 11:02:19;;;;;;;1.2;1;;;;;;;27.33;32.53418;939.062;;;;
2023/05/04 11:04:48;;;;;;;1.4;1.1;;;;;;;27.13;32.85156;939.0797;;;;
2023/05/04 11:07:13;;;;;;;1.5;1.4;;;;;;;27.25;33.46582;939.0044;;;;
2023/05/04 11:09:38;;;;;;;1.2;1.1;;;;;;;27.28;33.21875;939.0131;;;;
2023/05/04 11:12:03;;;;;;;1.2;1.1;;;;;;;26.78;35.7998;938.9685;;;;
2023/05/04 11:14:28;;;;;;;1.4;1.2;;;;;;;25.93;36.06348;938.9186;;;;
2023/05/04 11:16:54;;;;;;;2.5;1.4;;;;;;;26.09;35.34277;938.9542;;;;
2023/05/04 11:19:18;;;;;;;2.1;1.2;;;;;;;26.56;33.61523;938.9744;;;;
2023/05/04 11:21:48;;;;;;;1.4;1.3;;;;;;;27.08;32.33887;939.0488;;;;
2023/05/04 11:24:13;;;;;;;1.2;1.1;;;;;;;27.43;35.16309;939.0558;;;;
2023/05/04 11:26:38;;;;;;;1.6;1;;;;;;;27.48;34.12305;939.0353;;;;
2023/05/04 11:29:03;;;;;;;1.2;1.1;;;;;;;26.89;34.12598;939.0087;;;;
2023/05/04 11:31:30;;;;;;;1.9;1.4;;;;;;;26.83;33.15039;939.0123;;;;
2023/05/04 11:33:55;;;;;;;1.2;1.1;;;;;;;27.69;32.01465;939.0447;;;;
2023/05/04 11:36:20;;;;;;;1.3;1.2;;;;;;;27.54;32.82324;938.9394;;;;
2023/05/04 11:38:47;;;;;;;1.4;1.3;;;;;;;27.87;31.96777;938.9554;;;;
2023/05/04 11:41:12;;;;;;;1.2;1.1;;;;;;;27.81;33.78027;938.9333;;;;
2023/05/04 11:43:39;;;;;;;1.4;1.3;;;;;;;26.36;35.24512;938.8441;;;;
2023/05/04 11:46:04;;;;;;;1.3;1.1;;;;;;;26.36;34.25098;938.8734;;;;
2023/05/04 11:48:30;;;;;;;2;1.6;;;;;;;26.92;34.12793;938.789;;;;
2023/05/04 11:50:55;;;;;;;1.3;1.2;;;;;;;26.01;37.54785;938.8412;;;;
2023/05/04 11:53:24;;;;;;;1.6;1.5;;;;;;;26.59;34.77734;938.7076;;;;
2023/05/04 11:55:55;;;;;;;2.4;1.3;;;;;;;26.48;34.28418;938.7355;;;;
2023/05/04 11:58:18;;;;;;;1.3;1.2;;;;;;;25.76;34.12305;938.7183;;;;
2023/05/04 12:00:43;;;;;;;1.3;1.2;;;;;;;24.9;36.42871;938.6708;;;;
2023/05/04 12:03:14;;;;;;;1.4;1.3;;;;;;;24.64;39.17871;938.7177;;;;
2023/05/04 12:05:43;;;;;;;1.4;1.3;;;;;;;24.91;37.7627;938.5889;;;;
2023/05/04 12:08:11;;;;;;;1.3;1.2;;;;;;;24.93;38.43652;938.604;;;;
2023/05/04 12:10:34;;;;;;;1.6;1.3;;;;;;;24.91;38.11621;938.57;;;;
2023/05/04 12:12:58;;;;;;;1.4;1.3;;;;;;;24.67;41.31543;938.5733;;;;
2023/05/04 12:15:25;;;;;;;1.9;1.2;;;;;;;24.23;42.09863;938.5557;;;;
2023/05/04 12:17:51;;;;;;;2;1.2;;;;;;;23.93;40.28125;938.597;;;;
2023/05/04 12:20:20;;;;;;;1.4;1.3;;;;;;;24.28;38.99414;938.5675;;;;
2023/05/04 12:22:47;;;;;;;1.3;1.2;;;;;;;24.22;40.0957;938.537;;;;
2023/05/04 12:25:17;;;;;;;1.4;1.3;;;;;;;23.86;42.98145;938.5756;;;;
2023/05/04 12:27:43;;;;;;;1.4;1.1;;;;;;;24.05;40.2334;938.5469;;;;
2023/05/04 12:30:08;;;;;;;1.4;1.3;;;;;;;24.04;40.50195;938.4554;;;;
2023/05/04 12:32:34;;;;;;;1.4;1.3;;;;;;;23.84;40.40234;938.4417;;;;
2023/05/04 12:34:59;;;;;;;1.2;1.1;;;;;;;23.36;41.42871;938.4799;;;;
2023/05/04 12:37:30;;;;;;;1.2;1.1;;;;;;;23.42;41.5752;938.4361;;;;
2023/05/04 12:39:58;;;;;;;1.3;1.2;;;;;;;23.47;40.9209;938.4274;;;;
2023/05/04 12:42:23;;;;;;;1.3;1.2;;;;;;;23.25;41.32422;938.4423;;;;
2023/05/04 12:44:50;;;;;;;1.3;1.2;;;;;;;23.33;41.9541;938.3814;;;;
2023/05/04 12:47:16;;;;;;;1.3;1.2;;;;;;;23.38;43.33496;938.3826;;;;
2023/05/04 12:49:40;;;;;;;1.3;1.2;;;;;;;23.53;40.4209;938.3469;;;;
2023/05/04 12:52:05;;;;;;;1.6;1.5;;;;;;;23.66;39.29102;938.3089;;;;
2023/05/04 12:54:33;;;;;;;1.5;1.2;;;;;;;23.57;40.02539;938.2731;;;;
2023/05/04 12:56:58;;;;;;;1.6;1.4;;;;;;;23.35;41.78027;938.3335;;;;
2023/05/04 12:59:25;;;;;;;1.8;1.3;;;;;;;23.44;42.65918;938.2714;;;;
2023/05/04 13:01:49;;;;;;;1.4;1.3;;;;;;;23.68;40.31738;938.303;;;;
2023/05/04 13:04:16;;;;;;;1.3;1.1;;;;;;;23.7;42.26074;938.2679;;;;
2023/05/04 13:06:42;;;;;;;1.3;1.2;;;;;;;23.35;40.55762;938.3033;;;;
2023/05/04 13:09:09;;;;;;;1.9;1.5;;;;;;;23.08;42.21387;938.2006;;;;
2023/05/04 13:11:34;;;;;;;1.3;1.2;;;;;;;22.72;43.09473;938.2372;;;;
2023/05/04 13:14:02;;;;;;;1.8;1.3;;;;;;;22.78;43.07715;938.2244;;;;
2023/05/04 13:16:31;;;;;;;1.5;1.4;;;;;;;22.87;42.79199;938.1589;;;;
2023/05/04 13:18:56;;;;;;;1.6;1.5;;;;;;;22.97;42.9541;938.087;;;;
2023/05/04 13:21:23;;;;;;;1.4;1.3;;;;;;;22.94;42.72852;938.067;;;;
2023/05/04 13:23:48;;;;;;;1.4;1.3;;;;;;;22.83;43.33984;938.0323;;;;
2023/05/04 13:26:15;;;;;;;1.3;1.2;;;;;;;22.83;41.84961;937.9747;;;;
2023/05/04 13:28:40;;;;;;;1.8;1.5;;;;;;;22.98;42.42773;937.9802;;;;
2023/05/04 13:31:07;;;;;;;2.3;1.8;;;;;;;23.05;42.77441;938.003;;;;
2023/05/04 13:33:31;;;;;;;1.3;1.2;;;;;;;22.96;42.89551;937.9475;;;;
2023/05/04 13:36:00;;;;;;;1.6;1.5;;;;;;;22.97;43.35352;937.8425;;;;
2023/05/04 13:38:23;;;;;;;1.4;1.2;;;;;;;22.96;43.31836;937.9866;;;;
2023/05/04 13:40:50;;;;;;;1.6;1.3;;;;;;;23.07;41.33105;937.9625;;;;
2023/05/04 13:43:15;;;;;;;1.4;1.3;;;;;;;23.2;40.95508;937.8987;;;;
2023/05/04 13:45:41;;;;;;;1.5;1.4;;;;;;;22.72;44.49219;937.9886;;;;
2023/05/04 13:48:06;;;;;;;1.5;1.4;;;;;;;22.79;41.5166;937.8961;;;;
2023/05/04 13:50:33;;;;;;;1.4;1.3;;;;;;;22.96;41.9209;937.9013;;;;
2023/05/04 13:52:58;;;;;;;1.6;1.1;;;;;;;22.98;43.84863;937.8541;;;;
2023/05/04 13:55:26;;;;;;;3.1;1.5;;;;;;;23.14;41.4668;937.7704;;;;
2023/05/04 13:57:52;;;;;;;1.4;1.3;;;;;;;23.24;43.07422;937.8105;;;;
2023/05/04 14:00:16;;;;;;;1.4;1.3;;;;;;;22.91;40.96387;937.7467;;;;
2023/05/04 14:02:44;;;;;;;1.4;1.3;;;;;;;22.86;41.01758;937.7411;;;;
2023/05/04 14:05:09;;;;;;;1.5;1.4;;;;;;;22.76;40.19922;937.7008;;;;
2023/05/04 14:07:34;;;;;;;2.1;1.4;;;;;;;22.73;41.85156;937.678;;;;
2023/05/04 14:09:59;;;;;;;1.5;1.4;;;;;;;22.63;41.7832;937.6619;;;;
2023/05/04 14:12:28;;;;;;;1.8;1.6;;;;;;;22.64;41.35059;937.6816;;;;
2023/05/04 14:14:53;;;;;;;1.5;1.4;;;;;;;22.83;40.07617;937.6597;;;;
2023/05/04 14:17:18;;;;;;;1.5;1.4;;;;;;;22.77;40.61133;937.6229;;;;
2023/05/04 14:19:44;;;;;;;1.7;1.6;;;;;;;22.78;41.42188;937.6348;;;;
2023/05/04 14:22:12;;;;;;;1.2;1.1;;;;;;;22.66;40.88281;937.5779;;;;
2023/05/04 14:24:37;;;;;;;1.4;1.3;;;;;;;22.75;39.9873;937.5765;;;;
2023/05/04 14:27:03;;;;;;;1.6;1.5;;;;;;;22.81;42.02344;937.59;;;;